sensor_id;sensor_type;location;lat;lon;timestamp;pressure;altitude;pressure_sealevel;temperature;humidity
39265;BME280;42646;51.910;7.724;2023-02-28T00:01:10;102483.19;;;-0.97;93.17
39265;BME280;42646;51.910;7.724;2023-02-28T00:03:38;102478.84;;;-0.98;93.63
39265;BME280;42646;51.910;7.724;2023-02-28T00:06:07;102483.22;;;-0.98;93.92
39265;BME280;42646;51.910;7.724;2023-02-28T00:08:36;102485.84;;;-1.00;94.26
39265;BME280;42646;51.910;7.724;2023-02-28T00:11:07;102483.22;;;-1.01;94.72
39265;BME280;42646;51.910;7.724;2023-02-28T00:13:38;102485.03;;;-1.05;94.82
39265;BME280;42646;51.910;7.724;2023-02-28T00:16:08;102481.56;;;-1.07;94.90
39265;BME280;42646;51.910;7.724;2023-02-28T00:18:36;102491.16;;;-1.09;95.20
39265;BME280;42646;51.910;7.724;2023-02-28T00:21:06;102485.13;;;-1.13;94.98
39265;BME280;42646;51.910;7.724;2023-02-28T00:23:35;102487.78;;;-1.16;94.96
39265;BME280;42646;51.910;7.724;2023-02-28T00:26:04;102479.97;;;-1.19;95.02
39265;BME280;42646;51.910;7.724;2023-02-28T00:28:32;102480.88;;;-1.21;94.98
39265;BME280;42646;51.910;7.724;2023-02-28T00:31:00;102485.25;;;-1.23;94.75
39265;BME280;42646;51.910;7.724;2023-02-28T00:33:28;102485.25;;;-1.25;94.86
39265;BME280;42646;51.910;7.724;2023-02-28T00:36:04;102483.59;;;-1.29;94.97
39265;BME280;42646;51.910;7.724;2023-02-28T00:38:35;102478.41;;;-1.30;95.10
39265;BME280;42646;51.910;7.724;2023-02-28T00:41:02;102480.13;;;-1.32;95.11
39265;BME280;42646;51.910;7.724;2023-02-28T00:43:34;102474.06;;;-1.33;95.08
39265;BME280;42646;51.910;7.724;2023-02-28T00:46:07;102481.06;;;-1.35;95.14
39265;BME280;42646;51.910;7.724;2023-02-28T00:48:35;102472.34;;;-1.37;95.43
39265;BME280;42646;51.910;7.724;2023-02-28T00:51:04;102479.31;;;-1.38;95.83
39265;BME280;42646;51.910;7.724;2023-02-28T00:53:31;102479.31;;;-1.38;96.17
39265;BME280;42646;51.910;7.724;2023-02-28T00:56:00;102471.53;;;-1.41;96.61
39265;BME280;42646;51.910;7.724;2023-02-28T00:58:28;102482.88;;;-1.42;96.55
39265;BME280;42646;51.910;7.724;2023-02-28T01:00:58;102473.34;;;-1.46;96.85
39265;BME280;42646;51.910;7.724;2023-02-28T01:03:25;102475.09;;;-1.48;97.02
39265;BME280;42646;51.910;7.724;2023-02-28T01:05:53;102471.66;;;-1.51;96.95
39265;BME280;42646;51.910;7.724;2023-02-28T01:08:21;102480.38;;;-1.52;96.80
39265;BME280;42646;51.910;7.724;2023-02-28T01:10:49;102471.69;;;-1.56;96.56
39265;BME280;42646;51.910;7.724;2023-02-28T01:13:18;102468.28;;;-1.59;96.87
39265;BME280;42646;51.910;7.724;2023-02-28T01:15:49;102470.88;;;-1.61;96.85
39265;BME280;42646;51.910;7.724;2023-02-28T01:18:19;102466.56;;;-1.64;96.85
39265;BME280;42646;51.910;7.724;2023-02-28T01:20:47;102462.22;;;-1.66;96.81
39265;BME280;42646;51.910;7.724;2023-02-28T01:23:15;102466.59;;;-1.68;96.73
39265;BME280;42646;51.910;7.724;2023-02-28T01:25:43;102460.56;;;-1.70;96.30
39265;BME280;42646;51.910;7.724;2023-02-28T01:28:11;102466.66;;;-1.71;96.36
39265;BME280;42646;51.910;7.724;2023-02-28T01:30:38;102464.91;;;-1.74;96.42
39265;BME280;42646;51.910;7.724;2023-02-28T01:33:06;102458.88;;;-1.76;96.47
39265;BME280;42646;51.910;7.724;2023-02-28T01:35:37;102464.97;;;-1.77;96.21
39265;BME280;42646;51.910;7.724;2023-02-28T01:38:04;102455.41;;;-1.79;96.18
39265;BME280;42646;51.910;7.724;2023-02-28T01:40:47;102455.44;;;-1.81;96.06
39265;BME280;42646;51.910;7.724;2023-02-28T01:43:20;102455.47;;;-1.82;96.19
39265;BME280;42646;51.910;7.724;2023-02-28T01:45:48;102456.34;;;-1.83;96.46
39265;BME280;42646;51.910;7.724;2023-02-28T01:48:16;102459.81;;;-1.84;96.43
39265;BME280;42646;51.910;7.724;2023-02-28T01:50:46;102461.56;;;-1.83;96.64
39265;BME280;42646;51.910;7.724;2023-02-28T01:53:19;102453.72;;;-1.83;96.75
39265;BME280;42646;51.910;7.724;2023-02-28T01:55:49;102456.38;;;-1.88;97.43
39265;BME280;42646;51.910;7.724;2023-02-28T01:58:19;102455.50;;;-1.87;97.32
39265;BME280;42646;51.910;7.724;2023-02-28T02:00:47;102458.13;;;-1.89;97.48
39265;BME280;42646;51.910;7.724;2023-02-28T02:03:18;102459.88;;;-1.89;97.63
39265;BME280;42646;51.910;7.724;2023-02-28T02:05:49;102455.50;;;-1.90;97.82
39265;BME280;42646;51.910;7.724;2023-02-28T02:08:20;102455.53;;;-1.92;98.44
39265;BME280;42646;51.910;7.724;2023-02-28T02:10:51;102450.34;;;-1.93;98.32
39265;BME280;42646;51.910;7.724;2023-02-28T02:13:34;102450.38;;;-1.95;98.31
39265;BME280;42646;51.910;7.724;2023-02-28T02:16:14;102460.78;;;-1.95;98.47
39265;BME280;42646;51.910;7.724;2023-02-28T02:18:51;102452.09;;;-1.97;98.87
39265;BME280;42646;51.910;7.724;2023-02-28T02:21:43;102453.84;;;-1.97;98.73
39265;BME280;42646;51.910;7.724;2023-02-28T02:24:40;102458.25;;;-2.01;98.81
39265;BME280;42646;51.910;7.724;2023-02-28T02:27:25;102448.66;;;-2.02;98.83
39265;BME280;42646;51.910;7.724;2023-02-28T02:30:21;102451.31;;;-2.05;99.02
39265;BME280;42646;51.910;7.724;2023-02-28T02:33:03;102455.66;;;-2.05;98.98
39265;BME280;42646;51.910;7.724;2023-02-28T02:35:39;102456.53;;;-2.05;98.87
39265;BME280;42646;51.910;7.724;2023-02-28T02:38:13;102454.81;;;-2.06;99.25
39265;BME280;42646;51.910;7.724;2023-02-28T02:40:50;102460.91;;;-2.07;99.35
39265;BME280;42646;51.910;7.724;2023-02-28T02:43:25;102450.50;;;-2.10;99.40
39265;BME280;42646;51.910;7.724;2023-02-28T02:45:56;102450.50;;;-2.11;99.27
39265;BME280;42646;51.910;7.724;2023-02-28T02:48:31;102454.84;;;-2.13;99.37
39265;BME280;42646;51.910;7.724;2023-02-28T02:51:03;102457.50;;;-2.17;99.37
39265;BME280;42646;51.910;7.724;2023-02-28T02:53:35;102460.13;;;-2.18;99.15
39265;BME280;42646;51.910;7.724;2023-02-28T02:56:31;102458.38;;;-2.21;98.78
39265;BME280;42646;51.910;7.724;2023-02-28T02:59:27;102457.56;;;-2.24;98.89
39265;BME280;42646;51.910;7.724;2023-02-28T03:01:58;102456.69;;;-2.26;98.88
39265;BME280;42646;51.910;7.724;2023-02-28T03:04:31;102460.22;;;-2.29;98.78
39265;BME280;42646;51.910;7.724;2023-02-28T03:07:02;102466.31;;;-2.30;98.47
39265;BME280;42646;51.910;7.724;2023-02-28T03:09:33;102461.06;;;-2.31;98.57
39265;BME280;42646;51.910;7.724;2023-02-28T03:12:09;102461.97;;;-2.32;98.38
39265;BME280;42646;51.910;7.724;2023-02-28T03:14:51;102454.19;;;-2.37;98.50
39265;BME280;42646;51.910;7.724;2023-02-28T03:17:46;102464.63;;;-2.38;98.27
39265;BME280;42646;51.910;7.724;2023-02-28T03:20:27;102465.50;;;-2.41;98.62
39265;BME280;42646;51.910;7.724;2023-02-28T03:23:10;102467.28;;;-2.43;98.57
39265;BME280;42646;51.910;7.724;2023-02-28T03:25:51;102462.94;;;-2.46;98.66
39265;BME280;42646;51.910;7.724;2023-02-28T03:28:30;102460.38;;;-2.49;98.82
39265;BME280;42646;51.910;7.724;2023-02-28T03:31:03;102462.97;;;-2.52;98.65
39265;BME280;42646;51.910;7.724;2023-02-28T03:33:38;102462.13;;;-2.52;98.75
39265;BME280;42646;51.910;7.724;2023-02-28T03:36:12;102463.88;;;-2.54;98.84
39265;BME280;42646;51.910;7.724;2023-02-28T03:38:45;102454.31;;;-2.55;98.88
39265;BME280;42646;51.910;7.724;2023-02-28T03:41:20;102465.59;;;-2.56;99.10
39265;BME280;42646;51.910;7.724;2023-02-28T03:43:55;102463.91;;;-2.59;99.09
39265;BME280;42646;51.910;7.724;2023-02-28T03:46:28;102459.56;;;-2.60;99.07
39265;BME280;42646;51.910;7.724;2023-02-28T03:49:02;102465.66;;;-2.61;98.96
39265;BME280;42646;51.910;7.724;2023-02-28T03:51:32;102465.66;;;-2.62;99.23
39265;BME280;42646;51.910;7.724;2023-02-28T03:54:06;102465.69;;;-2.65;98.91
39265;BME280;42646;51.910;7.724;2023-02-28T03:56:38;102466.56;;;-2.66;99.11
39265;BME280;42646;51.910;7.724;2023-02-28T03:59:13;102470.03;;;-2.67;99.20
39265;BME280;42646;51.910;7.724;2023-02-28T04:01:44;102471.78;;;-2.70;98.83
39265;BME280;42646;51.910;7.724;2023-02-28T04:04:13;102474.38;;;-2.70;99.13
39265;BME280;42646;51.910;7.724;2023-02-28T04:06:42;102473.53;;;-2.72;99.11
39265;BME280;42646;51.910;7.724;2023-02-28T04:09:13;102470.91;;;-2.73;98.83
39265;BME280;42646;51.910;7.724;2023-02-28T04:11:42;102470.94;;;-2.75;98.98
39265;BME280;42646;51.910;7.724;2023-02-28T04:14:12;102472.69;;;-2.75;98.94
39265;BME280;42646;51.910;7.724;2023-02-28T04:16:41;102475.31;;;-2.77;98.75
39265;BME280;42646;51.910;7.724;2023-02-28T04:19:11;102473.56;;;-2.78;98.75
39265;BME280;42646;51.910;7.724;2023-02-28T04:21:42;102471.84;;;-2.80;99.25
39265;BME280;42646;51.910;7.724;2023-02-28T04:24:17;102470.09;;;-2.81;99.11
39265;BME280;42646;51.910;7.724;2023-02-28T04:26:47;102474.47;;;-2.83;98.91
39265;BME280;42646;51.910;7.724;2023-02-28T04:29:19;102472.75;;;-2.84;99.18
39265;BME280;42646;51.910;7.724;2023-02-28T04:31:48;102474.47;;;-2.86;99.11
39265;BME280;42646;51.910;7.724;2023-02-28T04:34:17;102464.09;;;-2.89;98.96
39265;BME280;42646;51.910;7.724;2023-02-28T04:36:45;102470.19;;;-2.90;98.88
39265;BME280;42646;51.910;7.724;2023-02-28T04:39:40;102470.19;;;-2.93;98.82
39265;BME280;42646;51.910;7.724;2023-02-28T04:42:10;102464.13;;;-2.96;99.06
39265;BME280;42646;51.910;7.724;2023-02-28T04:44:38;102474.53;;;-2.96;98.82
39265;BME280;42646;51.910;7.724;2023-02-28T04:47:05;102478.88;;;-2.98;98.93
39265;BME280;42646;51.910;7.724;2023-02-28T04:49:33;102472.81;;;-3.00;99.05
39265;BME280;42646;51.910;7.724;2023-02-28T04:52:02;102476.31;;;-3.02;98.83
39265;BME280;42646;51.910;7.724;2023-02-28T04:54:30;102473.69;;;-3.04;98.92
39265;BME280;42646;51.910;7.724;2023-02-28T04:56:59;102471.13;;;-3.07;99.13
39265;BME280;42646;51.910;7.724;2023-02-28T04:59:27;102478.94;;;-3.08;98.75
39265;BME280;42646;51.910;7.724;2023-02-28T05:01:57;102471.13;;;-3.10;98.64
39265;BME280;42646;51.910;7.724;2023-02-28T05:04:25;102476.34;;;-3.13;98.85
39265;BME280;42646;51.910;7.724;2023-02-28T05:07:18;102475.47;;;-3.16;98.89
39265;BME280;42646;51.910;7.724;2023-02-28T05:09:45;102474.63;;;-3.17;99.03
39265;BME280;42646;51.910;7.724;2023-02-28T05:12:14;102478.09;;;-3.18;98.80
39265;BME280;42646;51.910;7.724;2023-02-28T05:14:43;102487.66;;;-3.20;98.41
39265;BME280;42646;51.910;7.724;2023-02-28T05:17:11;102486.78;;;-3.22;98.92
39265;BME280;42646;51.910;7.724;2023-02-28T05:19:39;102485.06;;;-3.23;98.82
39265;BME280;42646;51.910;7.724;2023-02-28T05:22:13;102485.09;;;-3.26;98.77
39265;BME280;42646;51.910;7.724;2023-02-28T05:24:40;102480.72;;;-3.27;98.54
39265;BME280;42646;51.910;7.724;2023-02-28T05:27:09;102493.75;;;-3.29;98.85
39265;BME280;42646;51.910;7.724;2023-02-28T05:29:38;102485.97;;;-3.30;98.60
39265;BME280;42646;51.910;7.724;2023-02-28T05:32:14;102485.06;;;-3.32;98.73
39265;BME280;42646;51.910;7.724;2023-02-28T05:34:42;102484.22;;;-3.34;98.62
39265;BME280;42646;51.910;7.724;2023-02-28T05:37:14;102492.06;;;-3.37;98.73
39265;BME280;42646;51.910;7.724;2023-02-28T05:39:42;102491.16;;;-3.39;98.60
39265;BME280;42646;51.910;7.724;2023-02-28T05:42:10;102490.31;;;-3.41;98.48
39265;BME280;42646;51.910;7.724;2023-02-28T05:44:39;102498.13;;;-3.43;98.38
39265;BME280;42646;51.910;7.724;2023-02-28T05:47:31;102492.06;;;-3.45;98.48
39265;BME280;42646;51.910;7.724;2023-02-28T05:49:59;102499.00;;;-3.45;98.49
39265;BME280;42646;51.910;7.724;2023-02-28T05:52:27;102497.28;;;-3.50;98.60
39265;BME280;42646;51.910;7.724;2023-02-28T05:54:56;102499.00;;;-3.50;98.36
39265;BME280;42646;51.910;7.724;2023-02-28T05:57:24;102499.88;;;-3.51;98.42
39265;BME280;42646;51.910;7.724;2023-02-28T05:59:55;102502.50;;;-3.54;98.39
39265;BME280;42646;51.910;7.724;2023-02-28T06:02:22;102498.16;;;-3.57;98.59
39265;BME280;42646;51.910;7.724;2023-02-28T06:04:50;102504.22;;;-3.58;98.60
39265;BME280;42646;51.910;7.724;2023-02-28T06:07:17;102501.63;;;-3.59;98.52
39265;BME280;42646;51.910;7.724;2023-02-28T06:09:45;102506.00;;;-3.61;98.29
39265;BME280;42646;51.910;7.724;2023-02-28T06:12:13;102506.84;;;-3.62;98.10
39265;BME280;42646;51.910;7.724;2023-02-28T06:14:40;102504.25;;;-3.64;98.41
39265;BME280;42646;51.910;7.724;2023-02-28T06:17:33;102501.66;;;-3.67;98.38
39265;BME280;42646;51.910;7.724;2023-02-28T06:20:01;102500.78;;;-3.69;98.15
39265;BME280;42646;51.910;7.724;2023-02-28T06:22:29;102504.25;;;-3.70;98.18
39265;BME280;42646;51.910;7.724;2023-02-28T06:24:58;102512.94;;;-3.72;98.11
39265;BME280;42646;51.910;7.724;2023-02-28T06:27:26;102510.31;;;-3.74;98.22
39265;BME280;42646;51.910;7.724;2023-02-28T06:29:54;102503.41;;;-3.77;98.15
39265;BME280;42646;51.910;7.724;2023-02-28T06:32:22;102514.66;;;-3.76;98.12
39265;BME280;42646;51.910;7.724;2023-02-28T06:34:52;102512.06;;;-3.78;98.13
39265;BME280;42646;51.910;7.724;2023-02-28T06:37:21;102511.19;;;-3.80;98.18
39265;BME280;42646;51.910;7.724;2023-02-28T06:39:53;102512.94;;;-3.83;98.16
39265;BME280;42646;51.910;7.724;2023-02-28T06:42:22;102512.94;;;-3.85;98.04
39265;BME280;42646;51.910;7.724;2023-02-28T06:44:51;102522.47;;;-3.85;98.04
39265;BME280;42646;51.910;7.724;2023-02-28T06:47:19;102519.00;;;-3.86;98.22
39265;BME280;42646;51.910;7.724;2023-02-28T06:49:47;102516.41;;;-3.87;97.73
39265;BME280;42646;51.910;7.724;2023-02-28T06:52:17;102513.81;;;-3.89;97.79
39265;BME280;42646;51.910;7.724;2023-02-28T06:54:44;102515.56;;;-3.91;98.03
39265;BME280;42646;51.910;7.724;2023-02-28T06:57:12;102516.41;;;-3.92;97.85
39265;BME280;42646;51.910;7.724;2023-02-28T06:59:39;102522.47;;;-3.93;98.15
39265;BME280;42646;51.910;7.724;2023-02-28T07:02:08;102526.81;;;-3.93;97.98
39265;BME280;42646;51.910;7.724;2023-02-28T07:04:35;102524.19;;;-3.93;98.23
39265;BME280;42646;51.910;7.724;2023-02-28T07:07:03;102522.47;;;-3.93;98.35
39265;BME280;42646;51.910;7.724;2023-02-28T07:09:33;102524.19;;;-3.92;98.55
39265;BME280;42646;51.910;7.724;2023-02-28T07:12:00;102532.00;;;-3.90;98.66
39265;BME280;42646;51.910;7.724;2023-02-28T07:14:28;102525.06;;;-3.88;98.44
39265;BME280;42646;51.910;7.724;2023-02-28T07:16:56;102530.25;;;-3.87;98.65
39265;BME280;42646;51.910;7.724;2023-02-28T07:19:24;102533.75;;;-3.83;99.04
39265;BME280;42646;51.910;7.724;2023-02-28T07:21:54;102533.75;;;-3.79;99.45
39265;BME280;42646;51.910;7.724;2023-02-28T07:24:21;102536.34;;;-3.72;99.76
39265;BME280;42646;51.910;7.724;2023-02-28T07:26:54;102539.78;;;-3.69;99.76
39265;BME280;42646;51.910;7.724;2023-02-28T07:29:22;102538.91;;;-3.57;100.00
39265;BME280;42646;51.910;7.724;2023-02-28T07:31:50;102541.50;;;-3.42;100.00
39265;BME280;42646;51.910;7.724;2023-02-28T07:34:42;102543.19;;;-3.24;100.00
39265;BME280;42646;51.910;7.724;2023-02-28T07:37:10;102543.13;;;-3.10;100.00
39265;BME280;42646;51.910;7.724;2023-02-28T07:39:38;102543.97;;;-2.96;100.00
39265;BME280;42646;51.910;7.724;2023-02-28T07:42:12;102544.78;;;-2.83;100.00
39265;BME280;42646;51.910;7.724;2023-02-28T07:44:40;102549.94;;;-2.71;100.00
39265;BME280;42646;51.910;7.724;2023-02-28T07:47:09;102544.69;;;-2.60;100.00
39265;BME280;42646;51.910;7.724;2023-02-28T07:49:37;102550.66;;;-2.49;100.00
39265;BME280;42646;51.910;7.724;2023-02-28T07:52:06;102551.47;;;-2.35;100.00
39265;BME280;42646;51.910;7.724;2023-02-28T07:54:38;102543.59;;;-2.26;100.00
39265;BME280;42646;51.910;7.724;2023-02-28T07:57:09;102547.88;;;-2.16;100.00
39265;BME280;42646;51.910;7.724;2023-02-28T07:59:38;102540.84;;;-2.09;100.00
39265;BME280;42646;51.910;7.724;2023-02-28T08:02:06;102546.00;;;-1.95;100.00
39265;BME280;42646;51.910;7.724;2023-02-28T08:04:34;102547.59;;;-1.77;100.00
39265;BME280;42646;51.910;7.724;2023-02-28T08:07:02;102543.97;;;-1.63;100.00
39265;BME280;42646;51.910;7.724;2023-02-28T08:09:30;102549.09;;;-1.53;100.00
39265;BME280;42646;51.910;7.724;2023-02-28T08:11:58;102553.34;;;-1.42;100.00
39265;BME280;42646;51.910;7.724;2023-02-28T08:14:26;102554.09;;;-1.32;100.00
39265;BME280;42646;51.910;7.724;2023-02-28T08:16:55;102552.22;;;-1.18;100.00
39265;BME280;42646;51.910;7.724;2023-02-28T08:19:23;102549.47;;;-1.05;100.00
39265;BME280;42646;51.910;7.724;2023-02-28T08:21:50;102555.41;;;-0.93;100.00
39265;BME280;42646;51.910;7.724;2023-02-28T08:24:18;102551.78;;;-0.81;99.27
39265;BME280;42646;51.910;7.724;2023-02-28T08:26:46;102554.25;;;-0.69;98.49
39265;BME280;42646;51.910;7.724;2023-02-28T08:29:14;102551.44;;;-0.55;97.73
39265;BME280;42646;51.910;7.724;2023-02-28T08:31:42;102545.13;;;-0.39;96.80
39265;BME280;42646;51.910;7.724;2023-02-28T08:34:14;102552.66;;;-0.19;96.76
39265;BME280;42646;51.910;7.724;2023-02-28T08:36:42;102552.34;;;0.03;95.87
39265;BME280;42646;51.910;7.724;2023-02-28T08:39:11;102552.00;;;0.22;95.14
39265;BME280;42646;51.910;7.724;2023-02-28T08:41:39;102547.38;;;0.38;94.50
39265;BME280;42646;51.910;7.724;2023-02-28T08:44:08;102552.28;;;0.57;93.37
39265;BME280;42646;51.910;7.724;2023-02-28T08:46:37;102555.63;;;0.66;92.40
39265;BME280;42646;51.910;7.724;2023-02-28T08:49:05;102551.09;;;0.74;91.34
39265;BME280;42646;51.910;7.724;2023-02-28T08:51:34;102550.16;;;0.78;89.42
39265;BME280;42646;51.910;7.724;2023-02-28T08:54:02;102555.28;;;0.85;88.14
39265;BME280;42646;51.910;7.724;2023-02-28T08:56:30;102550.84;;;0.87;87.30
39265;BME280;42646;51.910;7.724;2023-02-28T08:58:58;102551.69;;;0.90;85.96
39265;BME280;42646;51.910;7.724;2023-02-28T09:01:28;102552.41;;;0.97;84.77
39265;BME280;42646;51.910;7.724;2023-02-28T09:03:57;102546.00;;;1.12;83.35
39265;BME280;42646;51.910;7.724;2023-02-28T09:06:26;102548.22;;;1.31;81.68
39265;BME280;42646;51.910;7.724;2023-02-28T09:08:57;102556.53;;;1.50;81.17
39265;BME280;42646;51.910;7.724;2023-02-28T09:11:26;102553.44;;;1.72;80.30
39265;BME280;42646;51.910;7.724;2023-02-28T09:13:58;102549.50;;;1.90;80.03
39265;BME280;42646;51.910;7.724;2023-02-28T09:16:26;102543.72;;;2.12;78.57
39265;BME280;42646;51.910;7.724;2023-02-28T09:18:54;102549.50;;;2.25;77.64
39265;BME280;42646;51.910;7.724;2023-02-28T09:21:22;102552.63;;;2.41;75.97
39265;BME280;42646;51.910;7.724;2023-02-28T09:23:54;102541.63;;;2.61;71.43
39265;BME280;42646;51.910;7.724;2023-02-28T09:26:24;102535.97;;;2.75;68.99
39265;BME280;42646;51.910;7.724;2023-02-28T09:29:08;102538.31;;;2.85;67.05
39265;BME280;42646;51.910;7.724;2023-02-28T09:31:36;102540.56;;;2.99;65.85
39265;BME280;42646;51.910;7.724;2023-02-28T09:34:07;102538.38;;;3.13;63.52
39265;BME280;42646;51.910;7.724;2023-02-28T09:36:37;102541.06;;;3.12;63.69
39265;BME280;42646;51.910;7.724;2023-02-28T09:39:11;102538.31;;;3.16;64.01
39265;BME280;42646;51.910;7.724;2023-02-28T09:41:42;102539.94;;;3.20;64.33
39265;BME280;42646;51.910;7.724;2023-02-28T09:44:19;102542.59;;;3.20;62.99
39265;BME280;42646;51.910;7.724;2023-02-28T09:46:51;102540.72;;;3.24;61.98
39265;BME280;42646;51.910;7.724;2023-02-28T09:49:24;102538.03;;;3.26;61.44
39265;BME280;42646;51.910;7.724;2023-02-28T09:51:57;102547.38;;;3.36;57.86
39265;BME280;42646;51.910;7.724;2023-02-28T09:54:29;102541.06;;;3.41;56.99
39265;BME280;42646;51.910;7.724;2023-02-28T09:57:01;102539.13;;;3.48;55.41
39265;BME280;42646;51.910;7.724;2023-02-28T09:59:39;102534.75;;;3.47;55.20
39265;BME280;42646;51.910;7.724;2023-02-28T10:02:20;102540.81;;;3.51;55.98
39265;BME280;42646;51.910;7.724;2023-02-28T10:04:53;102534.44;;;3.58;55.79
39265;BME280;42646;51.910;7.724;2023-02-28T10:07:38;102529.84;;;3.64;56.16
39265;BME280;42646;51.910;7.724;2023-02-28T10:10:19;102532.09;;;3.77;56.35
39265;BME280;42646;51.910;7.724;2023-02-28T10:12:52;102532.56;;;3.89;57.22
39265;BME280;42646;51.910;7.724;2023-02-28T10:15:21;102527.00;;;3.98;56.22
39265;BME280;42646;51.910;7.724;2023-02-28T10:17:56;102528.53;;;4.06;56.14
39265;BME280;42646;51.910;7.724;2023-02-28T10:20:37;102534.09;;;4.23;53.09
39265;BME280;42646;51.910;7.724;2023-02-28T10:23:13;102528.63;;;4.29;53.18
39265;BME280;42646;51.910;7.724;2023-02-28T10:25:47;102526.00;;;4.29;53.47
39265;BME280;42646;51.910;7.724;2023-02-28T10:28:26;102531.97;;;4.34;52.69
39265;BME280;42646;51.910;7.724;2023-02-28T10:30:58;102529.13;;;4.40;51.99
39265;BME280;42646;51.910;7.724;2023-02-28T10:33:30;102535.25;;;4.41;51.52
39265;BME280;42646;51.910;7.724;2023-02-28T10:35:58;102527.19;;;4.45;52.66
39265;BME280;42646;51.910;7.724;2023-02-28T10:38:33;102533.47;;;4.41;52.15
39265;BME280;42646;51.910;7.724;2023-02-28T10:41:29;102525.41;;;4.46;50.71
39265;BME280;42646;51.910;7.724;2023-02-28T10:44:21;102523.22;;;4.34;51.28
39265;BME280;42646;51.910;7.724;2023-02-28T10:46:51;102525.00;;;4.32;51.31
39265;BME280;42646;51.910;7.724;2023-02-28T10:49:21;102530.47;;;4.27;51.98
39265;BME280;42646;51.910;7.724;2023-02-28T10:51:53;102520.00;;;4.24;52.31
39265;BME280;42646;51.910;7.724;2023-02-28T10:54:27;102525.34;;;4.22;51.72
39265;BME280;42646;51.910;7.724;2023-02-28T10:57:13;102526.91;;;4.28;51.50
39265;BME280;42646;51.910;7.724;2023-02-28T10:59:44;102531.75;;;4.40;50.77
39265;BME280;42646;51.910;7.724;2023-02-28T11:02:31;102532.41;;;4.47;51.83
39265;BME280;42646;51.910;7.724;2023-02-28T11:05:23;102520.34;;;4.65;51.09
39265;BME280;42646;51.910;7.724;2023-02-28T11:07:52;102513.63;;;4.56;51.00
39265;BME280;42646;51.910;7.724;2023-02-28T11:10:25;102516.44;;;4.51;50.30
39265;BME280;42646;51.910;7.724;2023-02-28T11:12:55;102523.78;;;4.42;50.60
39265;BME280;42646;51.910;7.724;2023-02-28T11:15:29;102522.88;;;4.43;50.01
39265;BME280;42646;51.910;7.724;2023-02-28T11:17:59;102521.72;;;4.25;49.62
39265;BME280;42646;51.910;7.724;2023-02-28T11:20:30;102516.59;;;4.20;50.39
39265;BME280;42646;51.910;7.724;2023-02-28T11:23:01;102517.78;;;4.12;51.32
39265;BME280;42646;51.910;7.724;2023-02-28T11:25:32;102513.50;;;4.09;51.74
39265;BME280;42646;51.910;7.724;2023-02-28T11:28:02;102511.00;;;4.05;51.90
39265;BME280;42646;51.910;7.724;2023-02-28T11:30:36;102514.28;;;4.11;51.77
39265;BME280;42646;51.910;7.724;2023-02-28T11:33:21;102511.53;;;4.14;51.74
39265;BME280;42646;51.910;7.724;2023-02-28T11:35:51;102510.66;;;4.15;52.72
39265;BME280;42646;51.910;7.724;2023-02-28T11:38:19;102515.72;;;4.21;53.28
39265;BME280;42646;51.910;7.724;2023-02-28T11:40:54;102511.13;;;4.26;52.80
39265;BME280;42646;51.910;7.724;2023-02-28T11:43:39;102502.16;;;4.32;51.21
39265;BME280;42646;51.910;7.724;2023-02-28T11:46:19;102502.16;;;4.32;52.45
39265;BME280;42646;51.910;7.724;2023-02-28T11:48:58;102500.44;;;4.31;52.42
39265;BME280;42646;51.910;7.724;2023-02-28T11:51:34;102501.22;;;4.35;53.05
39265;BME280;42646;51.910;7.724;2023-02-28T11:54:21;102497.06;;;4.27;52.52
39265;BME280;42646;51.910;7.724;2023-02-28T11:56:55;102493.41;;;4.32;51.93
39265;BME280;42646;51.910;7.724;2023-02-28T11:59:42;102487.47;;;4.25;52.78
39265;BME280;42646;51.910;7.724;2023-02-28T12:02:28;102475.66;;;4.37;51.76
39265;BME280;42646;51.910;7.724;2023-02-28T12:05:11;102471.25;;;4.37;53.02
39265;BME280;42646;51.910;7.724;2023-02-28T12:07:50;102468.53;;;4.40;54.59
39265;BME280;42646;51.910;7.724;2023-02-28T12:10:26;102463.28;;;4.39;53.67
39265;BME280;42646;51.910;7.724;2023-02-28T12:13:05;102457.22;;;4.37;54.40
39265;BME280;42646;51.910;7.724;2023-02-28T12:15:45;102454.44;;;4.41;53.93
39265;BME280;42646;51.910;7.724;2023-02-28T12:18:36;102450.81;;;4.44;53.70
39265;BME280;42646;51.910;7.724;2023-02-28T12:21:17;102464.63;;;4.50;52.94
39265;BME280;42646;51.910;7.724;2023-02-28T12:24:14;102459.56;;;4.44;53.80
39265;BME280;42646;51.910;7.724;2023-02-28T12:26:51;102457.97;;;4.40;54.47
39265;BME280;42646;51.910;7.724;2023-02-28T12:29:24;102452.50;;;4.46;54.58
39265;BME280;42646;51.910;7.724;2023-02-28T12:31:58;102455.97;;;4.47;54.16
39265;BME280;42646;51.910;7.724;2023-02-28T12:34:32;102461.25;;;4.47;53.95
39265;BME280;42646;51.910;7.724;2023-02-28T12:37:06;102444.59;;;4.46;53.84
39265;BME280;42646;51.910;7.724;2023-02-28T12:39:39;102448.13;;;4.45;54.21
39265;BME280;42646;51.910;7.724;2023-02-28T12:42:19;102442.69;;;4.50;53.75
39265;BME280;42646;51.910;7.724;2023-02-28T12:44:54;102439.16;;;4.51;54.47
39265;BME280;42646;51.910;7.724;2023-02-28T12:47:25;102441.72;;;4.52;54.19
39265;BME280;42646;51.910;7.724;2023-02-28T12:49:58;102432.09;;;4.51;54.31
39265;BME280;42646;51.910;7.724;2023-02-28T12:52:33;102432.84;;;4.55;54.32
39265;BME280;42646;51.910;7.724;2023-02-28T12:55:07;102433.75;;;4.54;54.57
39265;BME280;42646;51.910;7.724;2023-02-28T12:57:43;102422.41;;;4.52;55.01
39265;BME280;42646;51.910;7.724;2023-02-28T13:00:18;102420.50;;;4.55;54.63
39265;BME280;42646;51.910;7.724;2023-02-28T13:02:59;102422.34;;;4.53;54.49
39265;BME280;42646;51.910;7.724;2023-02-28T13:06:03;102414.44;;;4.53;53.45
39265;BME280;42646;51.910;7.724;2023-02-28T13:08:57;102413.81;;;4.47;54.25
39265;BME280;42646;51.910;7.724;2023-02-28T13:11:29;102403.06;;;4.53;54.08
39265;BME280;42646;51.910;7.724;2023-02-28T13:14:00;102404.84;;;4.52;54.53
39265;BME280;42646;51.910;7.724;2023-02-28T13:16:52;102406.25;;;4.61;54.06
39265;BME280;42646;51.910;7.724;2023-02-28T13:19:23;102389.47;;;4.64;53.12
39265;BME280;42646;51.910;7.724;2023-02-28T13:21:54;102401.91;;;4.60;53.30